Honaunau, HI (96726)

9:11 AM HST on September 20, 2014 (GMT -1000)
Captain Cook | Change Station
CLOSE
Current Station
Personal Weather Station
Location: Captain Cook, HI
Elevation: 915 ft
Nearby Weather Stations

Elev 915 ft 19.31 °N, 155.88 °W | Updated 11 minutes ago

Partly Cloudy
Partly Cloudy
81.0 °F
Feels Like 85 °F
N
0.0
Wind Variable Wind from NE
Gusts 5.0 mph

Today
High -- | Low -- °F
--% Chance of Precip.
Yesterday
High -- | Low -- °F
Precip. -- in
6:12 AM 6:21 PM
Waning Crescent, 11% visible
Pressure 29.95 in
Visibility 10.0 miles
Clouds Few 10000 ft
Heat Index 85 °F
Dew Point 72 °F
Humidity 75%
Rainfall 0.00 in
Snow Depth Not available.
UV 3.6 out of 12
Pollen Not available.
Air Quality Not available.
Flu Activity Not available.
METAR PHKO 201853Z 24006KT 10SM FEW100 28/23 A2994 RMK AO2 SLP140 T02830233

More Conditions Fewer Conditions

Pressure 29.95 in
Visibility 10.0 miles
Clouds Few 10000 ft
Heat Index 85 °F
Dew Point 72 °F
Humidity 75%
Rainfall 0.00 in
Snow Depth Not available.
UV 3.6 out of 12
Pollen Not available.
Air Quality Not available.
Flu Activity Not available.
METAR PHKO 201853Z 24006KT 10SM FEW100 28/23 A2994 RMK AO2 SLP140 T02830233

More Conditions Fewer Conditions

10-Day Weather Forecast

Almanac

Astronomy

Sep. 20, 2014 Rise Set
Actual Time 6:12 AM HST 6:21 PM HST
Civil Twilight 5:50 AM HST 6:43 PM HST
Nautical Twilight 5:24 AM HST 7:08 PM HST
Astronomical Twilight 4:59 AM HST 7:34 PM HST
Moon 3:21 AM HST 4:13 PM HST
Length of Visible Light 12h 53m
Length of Day
12h 09m
Tomorrow will be 1m 6s shorter.
Waning Crescent, 11% of the Moon is Illuminated
Today
Waning Crescent
Sep 24
New
Oct 1
First Quarter
Oct 8
Full
Oct 15
Last Quarter

Today's Extremes

State Highs State Lows

Community

WunderPhotos

Upload Photos

1,754,921 photos uploaded!

WunderBlogs® & News

Nearby

Snow Depth

Station Depth Elevation
No new snow has been reported.

Earthquake Activity

City Distance Mag. Time & Date
No recent earthquake activity has been reported nearby.
Minimum magnitude displayed is 2.5.

Coastal Water Temperatures

Place Temperature
No Stations Reporting

Nearby Weather Stations